Solicitamos su permiso para obtener datos estadísticos de su navegación en esta web, en cumplimiento del Real Decreto-ley 13/2012. Si continúa navegando consideramos que acepta el uso de cookies. OK | Más información

MAPA DE AEROPUERTO

INFORMACIÓN METAR y TAF

METAR FOR LEMG
ADDS - METARS form results

(2135 UTC 24 February 2018)
Data provider http://aviationweather.gov/adds/metars/
 
METAR text: LEMG 242130Z VRB02KT 9999 SCT027 BKN085 13/08 Q1010 NOSIG
Conditions at: LEMG (MALAGA (CIV/MIL), ES) observed 2130 UTC 24 February 2018
Temperature: 13.0°C (55°F)
Dewpoint: 8.0°C (46°F) [RH = 72%]
Pressure (altimeter): 29.82 inches Hg (1010.0 mb)
Winds: variable direction winds at 2 MPH (2 knots; 1.0 m/s)
Visibility: 6 or more miles (10+ km)
Ceiling: 8500 feet AGL
Clouds: scattered clouds at 2700 feet AGL
broken clouds at 8500 feet AGL
Weather: no significant weather observed at this time

METAR text: LEMG 242100Z 10002KT 9999 FEW027 BKN085 13/08 Q1010 NOSIG
Conditions at: LEMG (MALAGA (CIV/MIL), ES) observed 2100 UTC 24 February 2018
Temperature: 13.0°C (55°F)
Dewpoint: 8.0°C (46°F) [RH = 72%]
Pressure (altimeter): 29.82 inches Hg (1010.0 mb)
Winds: from the E (100 degrees) at 2 MPH (2 knots; 1.0 m/s)
Visibility: 6 or more miles (10+ km)
Ceiling: 8500 feet AGL
Clouds: few clouds at 2700 feet AGL
broken clouds at 8500 feet AGL
Weather: no significant weather observed at this time

Forecast for: LEMG (MALAGA (CIV/MIL), ES)
Text: TAF LEMG 241700Z 2418/2518 12009KT 9999 FEW020 SCT035 TX16/2515Z TN09/2507Z
Forecast period: 1800 to 2100 UTC 24 February 2018
Forecast type: FROM: standard forecast or significant change
Winds: from the ESE (120 degrees) at 10 MPH (9 knots; 4.7 m/s)
Visibility: 6 or more miles (10+ km)
Clouds: few clouds at 2000 feet AGL
scattered clouds at 3500 feet AGL
Weather: no significant weather forecast for this period
Text: BECMG 2421/2423 29006KT
Forecast period: 2100 UTC 24 February 2018 to 1000 UTC 25 February 2018
Forecast type: BECOMING: Conditions expected to become as follows by 2300 UTC 24 February 2018
Winds: from the WNW (290 degrees) at 7 MPH (6 knots; 3.1 m/s)
Visibility: 6 or more miles (10+ km)
Clouds: few clouds at 2000 feet AGL
scattered clouds at 3500 feet AGL
Weather: no significant weather forecast for this period
Text: BECMG 2510/2512 12006KT
Forecast period: 1000 to 1800 UTC 25 February 2018
Forecast type: BECOMING: Conditions expected to become as follows by 1200 UTC 25 February 2018
Winds: from the ESE (120 degrees) at 7 MPH (6 knots; 3.1 m/s)
Visibility: 6 or more miles (10+ km)
Clouds: few clouds at 2000 feet AGL
scattered clouds at 3500 feet AGL
Weather: no significant weather forecast for this period